Time;durP1;ratioP1;P1;durP2;ratioP2;P2;SDS_P1;SDS_P2;PMS_P1;PMS_P2;Temp;Humidity;BMP_temperature;BMP_pressure;BME280_temperature;BME280_humidity;BME280_pressure;Samples;Min_cycle;Max_cycle;Signal;HPM_P1;HPM_P2
2023/06/04 00:00:47;;;;;;;10.30;5.20;;;8.90;99.90;;;;;;5079370;28;20209;-87
2023/06/04 00:03:13;;;;;;;9.98;4.13;;;8.90;99.90;;;;;;5113937;28;20202;-86
2023/06/04 00:05:39;;;;;;;6.85;3.50;;;8.90;99.90;;;;;;5112081;28;20232;-86
2023/06/04 00:08:04;;;;;;;14.75;5.47;;;8.80;99.90;;;;;;5114089;28;20230;-85
2023/06/04 00:10:31;;;;;;;9.98;4.65;;;8.80;99.90;;;;;;5112558;28;20271;-85
2023/06/04 00:12:56;;;;;;;9.38;3.88;;;8.70;99.90;;;;;;5112769;28;20242;-85
2023/06/04 00:15:22;;;;;;;18.30;4.75;;;8.70;99.90;;;;;;5115695;28;20538;-85
2023/06/04 00:17:48;;;;;;;11.48;4.22;;;8.70;99.90;;;;;;5137470;28;20316;-85
2023/06/04 00:20:13;;;;;;;8.40;4.20;;;8.70;99.90;;;;;;5119931;28;20535;-87
2023/06/04 00:22:41;;;;;;;12.73;4.35;;;8.70;99.90;;;;;;5116313;28;20273;-86
2023/06/04 00:25:10;;;;;;;6.95;3.40;;;8.70;99.90;;;;;;5114179;28;20206;-86
2023/06/04 00:27:36;;;;;;;6.97;3.88;;;8.60;99.90;;;;;;5097319;28;20182;-87
2023/06/04 00:30:03;;;;;;;10.43;4.43;;;8.60;99.90;;;;;;5113487;28;20182;-86
2023/06/04 00:32:28;;;;;;;5.45;3.60;;;8.60;99.90;;;;;;5113440;28;20216;-87
2023/06/04 00:34:57;;;;;;;7.68;4.22;;;8.60;99.90;;;;;;5113270;28;20178;-84
2023/06/04 00:37:23;;;;;;;9.05;4.72;;;8.60;99.90;;;;;;5114280;28;20538;-85
2023/06/04 00:39:49;;;;;;;11.68;4.05;;;8.50;99.90;;;;;;5114137;28;20201;-85
2023/06/04 00:42:15;;;;;;;7.90;4.32;;;8.50;99.90;;;;;;5113100;28;20215;-86
2023/06/04 00:44:44;;;;;;;12.15;4.25;;;8.50;99.90;;;;;;5113311;28;20204;-85
2023/06/04 00:47:18;;;;;;;11.38;4.60;;;8.40;99.90;;;;;;5112724;28;20196;-85
2023/06/04 00:49:44;;;;;;;10.98;3.67;;;8.40;99.90;;;;;;5112773;28;20645;-86
2023/06/04 00:52:12;;;;;;;11.30;4.23;;;8.40;99.90;;;;;;5113685;28;20173;-85
2023/06/04 00:54:38;;;;;;;10.57;4.37;;;8.40;99.90;;;;;;5113219;28;20178;-85
2023/06/04 00:57:04;;;;;;;6.63;4.70;;;8.40;99.90;;;;;;5112626;28;20533;-85
2023/06/04 00:59:33;;;;;;;8.75;4.40;;;8.30;99.90;;;;;;5113695;28;20216;-85
2023/06/04 01:02:19;;;;;;;7.68;4.15;;;8.30;99.90;;;;;;5112268;28;20181;-85
2023/06/04 01:05:08;;;;;;;10.68;3.92;;;8.30;99.90;;;;;;5113431;28;20181;-85
2023/06/04 01:07:35;;;;;;;9.63;4.70;;;8.30;99.90;;;;;;5113607;28;20205;-85
2023/06/04 01:10:02;;;;;;;11.23;3.80;;;8.30;99.90;;;;;;5113333;28;20189;-86
2023/06/04 01:12:27;;;;;;;9.50;4.20;;;8.20;99.90;;;;;;5113751;28;20186;-86
2023/06/04 01:14:53;;;;;;;10.07;4.60;;;8.20;99.90;;;;;;5112527;28;20189;-86
2023/06/04 01:17:28;;;;;;;10.33;4.97;;;8.20;99.90;;;;;;5114769;28;20178;-86
2023/06/04 01:20:11;;;;;;;6.68;3.83;;;8.20;99.90;;;;;;5117048;28;20255;-86
2023/06/04 01:23:01;;;;;;;8.73;4.97;;;8.20;99.90;;;;;;5115901;28;20262;-86
2023/06/04 01:25:41;;;;;;;9.00;4.40;;;8.20;99.90;;;;;;5115899;28;20273;-86
2023/06/04 01:28:08;;;;;;;12.20;4.13;;;8.10;99.90;;;;;;5117348;28;20176;-86
2023/06/04 01:30:45;;;;;;;7.23;4.33;;;8.10;99.90;;;;;;5117226;28;20622;-86
2023/06/04 01:33:17;;;;;;;9.87;4.50;;;8.10;99.90;;;;;;5115901;28;20638;-86
2023/06/04 01:35:43;;;;;;;10.97;5.00;;;8.00;99.90;;;;;;5115759;28;20186;-86
2023/06/04 01:38:10;;;;;;;9.20;3.77;;;8.00;99.90;;;;;;5116894;28;20219;-86
2023/06/04 01:40:35;;;;;;;9.53;4.20;;;8.00;99.90;;;;;;5116655;28;20178;-86
2023/06/04 01:43:01;;;;;;;10.50;3.90;;;8.00;99.90;;;;;;5117050;28;20184;-86
2023/06/04 01:45:28;;;;;;;7.37;3.87;;;7.90;99.90;;;;;;5116962;28;20173;-86
2023/06/04 01:47:54;;;;;;;7.33;3.77;;;7.90;99.90;;;;;;5116662;28;20185;-86
2023/06/04 01:50:20;;;;;;;6.73;3.90;;;7.90;99.90;;;;;;5116719;28;20180;-87
2023/06/04 01:52:46;;;;;;;7.13;4.30;;;7.80;99.90;;;;;;5115212;28;20182;-86
2023/06/04 01:55:14;;;;;;;8.90;4.13;;;7.80;99.90;;;;;;5116459;28;20178;-86
2023/06/04 01:57:41;;;;;;;8.43;4.30;;;7.80;99.90;;;;;;5116514;28;20195;-85
2023/06/04 02:00:10;;;;;;;6.33;3.53;;;7.80;99.90;;;;;;5115083;28;20221;-86
2023/06/04 02:02:36;;;;;;;8.27;3.70;;;7.70;99.90;;;;;;5116517;28;20174;-86
2023/06/04 02:05:08;;;;;;;6.33;3.20;;;7.70;99.90;;;;;;5115405;28;20170;-87
2023/06/04 02:07:38;;;;;;;11.83;3.90;;;7.70;99.90;;;;;;5115584;28;20169;-87
2023/06/04 02:10:13;;;;;;;4.90;3.63;;;7.60;99.90;;;;;;5116092;28;20176;-86
2023/06/04 02:12:56;;;;;;;9.63;4.27;;;7.60;99.90;;;;;;5116564;28;20208;-86
2023/06/04 02:15:23;;;;;;;7.40;4.37;;;7.60;99.90;;;;;;5115196;28;20637;-86
2023/06/04 02:17:50;;;;;;;8.50;4.43;;;7.60;99.90;;;;;;5114448;28;20693;-87
2023/06/04 02:20:16;;;;;;;6.47;3.77;;;7.60;99.90;;;;;;5114645;28;20312;-87
2023/06/04 02:22:42;;;;;;;7.63;3.77;;;7.60;99.90;;;;;;5114814;28;20251;-86
2023/06/04 02:25:11;;;;;;;12.70;4.30;;;7.60;99.90;;;;;;5116162;28;20229;-86
2023/06/04 02:27:37;;;;;;;7.53;4.10;;;7.60;99.90;;;;;;5114285;28;20182;-86
2023/06/04 02:30:05;;;;;;;12.97;3.90;;;7.50;99.90;;;;;;5114461;28;20661;-86
2023/06/04 02:32:33;;;;;;;9.40;4.70;;;7.50;99.90;;;;;;5115784;28;20259;-86
2023/06/04 02:34:59;;;;;;;11.30;3.93;;;7.50;99.90;;;;;;5115782;28;20181;-86
2023/06/04 02:37:25;;;;;;;11.10;4.43;;;7.50;99.90;;;;;;5115976;27;20174;-86
2023/06/04 02:39:50;;;;;;;7.83;3.97;;;7.50;99.90;;;;;;5097215;28;20217;-86
2023/06/04 02:42:16;;;;;;;8.53;3.97;;;7.50;99.90;;;;;;5114594;28;20213;-86
2023/06/04 02:44:41;;;;;;;6.87;4.30;;;7.50;99.90;;;;;;5114263;28;20555;-86
2023/06/04 02:47:07;;;;;;;11.13;4.37;;;7.50;99.90;;;;;;5113987;28;20699;-86
2023/06/04 02:49:33;;;;;;;7.37;3.63;;;7.50;99.90;;;;;;5097142;28;20200;-86
2023/06/04 02:51:59;;;;;;;7.77;3.70;;;7.50;99.90;;;;;;5097092;28;20517;-86
2023/06/04 02:54:25;;;;;;;9.03;4.13;;;7.50;99.90;;;;;;5097387;28;20178;-86
2023/06/04 02:56:51;;;;;;;6.43;3.93;;;7.50;99.90;;;;;;5113935;28;20182;-86
2023/06/04 02:59:17;;;;;;;7.17;3.60;;;7.50;99.90;;;;;;5096930;28;20692;-86
2023/06/04 03:01:43;;;;;;;8.47;3.87;;;7.50;99.90;;;;;;5114896;28;20270;-86
2023/06/04 03:04:09;;;;;;;10.33;4.33;;;7.50;99.90;;;;;;5115049;28;20186;-85
2023/06/04 03:06:39;;;;;;;10.33;4.23;;;7.50;99.90;;;;;;5114051;28;20184;-86
2023/06/04 03:09:06;;;;;;;13.37;4.17;;;7.60;99.90;;;;;;5115377;28;20209;-86
2023/06/04 03:11:32;;;;;;;7.67;4.20;;;7.70;99.90;;;;;;5113793;28;20170;-86
2023/06/04 03:13:58;;;;;;;9.83;3.57;;;7.70;99.90;;;;;;5096873;28;20760;-86
2023/06/04 03:16:23;;;;;;;10.07;4.40;;;7.70;99.90;;;;;;5121247;28;20232;-86
2023/06/04 03:18:49;;;;;;;8.77;4.03;;;7.80;99.90;;;;;;5136638;28;20741;-85
2023/06/04 03:21:15;;;;;;;6.40;3.30;;;7.80;99.90;;;;;;5138037;28;20189;-84
2023/06/04 03:23:41;;;;;;;10.17;4.47;;;7.90;99.90;;;;;;5133672;28;20545;-85
2023/06/04 03:26:07;;;;;;;8.03;4.70;;;8.00;99.90;;;;;;5124741;28;20182;-86
2023/06/04 03:28:33;;;;;;;10.87;4.77;;;8.10;99.90;;;;;;5124876;28;20186;-85
2023/06/04 03:30:59;;;;;;;7.40;3.47;;;8.10;99.90;;;;;;5118625;28;20269;-88
2023/06/04 03:33:25;;;;;;;6.37;3.50;;;8.20;99.90;;;;;;5118722;28;20182;-87
2023/06/04 03:35:52;;;;;;;8.50;3.90;;;8.20;99.90;;;;;;5120001;28;20545;-87
2023/06/04 03:38:18;;;;;;;6.00;3.97;;;8.30;99.90;;;;;;5114147;28;20197;-88
2023/06/04 03:40:45;;;;;;;6.23;4.03;;;8.40;99.90;;;;;;5113888;28;20174;-88
2023/06/04 03:43:10;;;;;;;11.03;3.83;;;8.50;99.90;;;;;;5113201;28;20181;-88
2023/06/04 03:45:36;;;;;;;8.10;3.37;;;8.50;99.90;;;;;;5114547;28;20319;-88
2023/06/04 03:48:02;;;;;;;4.27;3.17;;;8.70;99.90;;;;;;5113106;28;20204;-88
2023/06/04 03:50:27;;;;;;;7.90;3.42;;;8.80;99.90;;;;;;5113328;28;20181;-88
2023/06/04 03:52:53;;;;;;;6.90;3.42;;;8.90;99.90;;;;;;5113003;28;20188;-86
2023/06/04 03:55:18;;;;;;;4.50;3.17;;;9.00;99.90;;;;;;5114067;28;20268;-87
2023/06/04 03:57:44;;;;;;;5.07;3.37;;;9.10;99.90;;;;;;5079612;28;20246;-86
2023/06/04 04:00:12;;;;;;;5.28;3.35;;;9.20;99.90;;;;;;5112509;28;20692;-85
2023/06/04 04:02:42;;;;;;;4.20;3.20;;;9.40;99.90;;;;;;5113160;28;20201;-86
2023/06/04 04:05:09;;;;;;;5.28;2.78;;;9.50;99.90;;;;;;5113876;28;20210;-85
2023/06/04 04:07:35;;;;;;;6.00;3.13;;;9.60;99.90;;;;;;5114156;28;20173;-86
2023/06/04 04:10:00;;;;;;;7.97;3.15;;;9.70;99.90;;;;;;5115528;28;20220;-86
2023/06/04 04:12:26;;;;;;;7.75;3.22;;;9.80;99.90;;;;;;5116170;28;20178;-86
2023/06/04 04:14:52;;;;;;;5.15;2.92;;;10.00;99.90;;;;;;5116367;28;20237;-86
2023/06/04 04:17:17;;;;;;;3.70;2.33;;;10.00;99.90;;;;;;5122157;28;20170;-86
2023/06/04 04:19:43;;;;;;;4.55;2.38;;;10.20;99.90;;;;;;5125988;28;20218;-86
2023/06/04 04:22:10;;;;;;;8.35;2.50;;;10.30;99.90;;;;;;5107939;28;20182;-86
2023/06/04 04:24:37;;;;;;;5.82;1.83;;;10.40;99.90;;;;;;5124760;28;20253;-86
2023/06/04 04:27:04;;;;;;;5.40;1.85;;;10.60;99.90;;;;;;5121434;28;20663;-87
2023/06/04 04:29:32;;;;;;;5.20;1.98;;;10.70;99.90;;;;;;5116018;28;20235;-86
2023/06/04 04:32:10;;;;;;;2.85;1.88;;;10.80;99.90;;;;;;5117031;28;20196;-87
2023/06/04 04:34:37;;;;;;;3.28;1.70;;;10.90;99.90;;;;;;5112640;28;20174;-87
2023/06/04 04:37:03;;;;;;;3.00;1.60;;;11.00;99.90;;;;;;5113726;28;20174;-83
2023/06/04 04:39:29;;;;;;;2.20;1.60;;;11.10;99.90;;;;;;5112746;28;20668;-87
2023/06/04 04:41:55;;;;;;;4.95;1.77;;;11.20;99.90;;;;;;5113684;28;20201;-86
2023/06/04 04:44:21;;;;;;;4.97;1.40;;;11.30;99.90;;;;;;5112308;28;20268;-86
2023/06/04 04:46:48;;;;;;;1.75;1.30;;;11.50;99.90;;;;;;5113993;28;20266;-87
2023/06/04 04:49:14;;;;;;;2.60;1.70;;;11.60;99.90;;;;;;5113762;28;20190;-88
2023/06/04 04:51:40;;;;;;;1.65;1.30;;;11.70;99.90;;;;;;5114587;28;20680;-85
2023/06/04 04:54:05;;;;;;;4.88;1.40;;;11.80;99.90;;;;;;5099489;28;20268;-85
2023/06/04 04:56:34;;;;;;;1.90;1.30;;;11.90;99.90;;;;;;5117508;28;20656;-85
2023/06/04 04:59:00;;;;;;;4.50;2.13;;;12.10;99.90;;;;;;5116376;28;20236;-85
2023/06/04 05:01:25;;;;;;;2.17;1.40;;;12.20;99.90;;;;;;5116416;28;20626;-84
2023/06/04 05:03:51;;;;;;;3.65;1.60;;;12.30;99.90;;;;;;5099364;28;20250;-85
2023/06/04 05:06:17;;;;;;;3.70;1.70;;;12.40;99.90;;;;;;5115987;28;20184;-87
2023/06/04 05:08:43;;;;;;;2.47;1.67;;;12.50;99.90;;;;;;5116220;28;20185;-87
2023/06/04 05:11:09;;;;;;;2.03;1.30;;;12.60;99.90;;;;;;5116883;28;20182;-85
2023/06/04 05:13:35;;;;;;;3.33;1.80;;;12.70;99.90;;;;;;5116338;28;20174;-85
2023/06/04 05:16:06;;;;;;;3.42;1.65;;;12.80;99.90;;;;;;5117203;28;20182;-84
2023/06/04 05:18:40;;;;;;;3.83;1.48;;;12.90;99.90;;;;;;5115615;28;20233;-87
2023/06/04 05:21:06;;;;;;;3.33;1.83;;;13.00;99.90;;;;;;5116135;28;20625;-87
2023/06/04 05:23:34;;;;;;;1.88;1.52;;;13.10;99.90;;;;;;5117197;27;20173;-85
2023/06/04 05:26:01;;;;;;;4.22;1.42;;;13.20;99.90;;;;;;5117552;28;20177;-88
2023/06/04 05:28:27;;;;;;;1.58;1.10;;;13.30;99.90;;;;;;5098968;28;20222;-85
2023/06/04 05:30:58;;;;;;;1.70;1.20;;;13.40;99.40;;;;;;5116729;28;20166;-84
2023/06/04 05:33:25;;;;;;;3.33;1.42;;;13.50;99.90;;;;;;5114684;28;20215;-85
2023/06/04 05:35:58;;;;;;;2.92;1.48;;;13.60;99.40;;;;;;5116410;28;20170;-85
2023/06/04 05:38:27;;;;;;;2.70;1.60;;;13.70;97.90;;;;;;5114389;28;20235;-84
2023/06/04 05:40:56;;;;;;;1.95;1.40;;;13.80;97.30;;;;;;5115957;28;20193;-84
2023/06/04 05:43:22;;;;;;;1.63;1.35;;;13.90;97.10;;;;;;5114300;28;20185;-85
2023/06/04 05:45:48;;;;;;;2.13;1.40;;;14.00;97.70;;;;;;5114411;28;20239;-86
2023/06/04 05:48:14;;;;;;;1.58;1.48;;;14.10;96.50;;;;;;5102707;28;20225;-85
2023/06/04 05:50:39;;;;;;;1.95;1.38;;;14.30;97.00;;;;;;5093856;28;20585;-85
2023/06/04 05:53:05;;;;;;;4.57;1.52;;;14.40;96.60;;;;;;5094383;28;20265;-85
2023/06/04 05:55:31;;;;;;;2.00;1.13;;;14.50;93.80;;;;;;5060452;28;20273;-88
2023/06/04 05:57:57;;;;;;;2.53;1.10;;;14.60;91.90;;;;;;5093973;28;20669;-88
2023/06/04 06:00:23;;;;;;;1.27;1.10;;;14.60;92.40;;;;;;5095039;28;20222;-85
2023/06/04 06:02:55;;;;;;;1.85;1.38;;;14.80;91.00;;;;;;5094547;28;20233;-86
2023/06/04 06:05:21;;;;;;;1.10;1.00;;;14.70;89.40;;;;;;5095159;28;20209;-85
2023/06/04 06:07:47;;;;;;;1.33;1.08;;;14.80;90.40;;;;;;5077275;28;20206;-85
2023/06/04 06:10:15;;;;;;;1.73;1.13;;;14.90;90.80;;;;;;5093794;28;20195;-85
2023/06/04 06:12:41;;;;;;;6.25;1.45;;;15.00;90.10;;;;;;5077410;28;20244;-86
2023/06/04 06:15:07;;;;;;;2.65;1.13;;;15.20;87.30;;;;;;5093335;28;20178;-85
2023/06/04 06:17:33;;;;;;;3.05;1.00;;;15.20;87.00;;;;;;5092963;28;20313;-86
2023/06/04 06:19:59;;;;;;;1.48;1.17;;;15.40;85.90;;;;;;5065186;28;20218;-87
2023/06/04 06:22:25;;;;;;;1.23;1.13;;;15.50;84.80;;;;;;5091220;28;20208;-88
2023/06/04 06:24:51;;;;;;;3.30;1.10;;;15.60;85.00;;;;;;5091618;28;20186;-87
2023/06/04 06:27:17;;;;;;;5.07;1.08;;;15.70;86.70;;;;;;5091515;28;20647;-87
2023/06/04 06:29:43;;;;;;;8.45;1.30;;;15.80;86.30;;;;;;5092725;28;20191;-87
2023/06/04 06:32:11;;;;;;;4.65;1.70;;;15.80;85.30;;;;;;5079560;28;20213;-88
2023/06/04 06:34:39;;;;;;;1.70;1.00;;;15.90;83.90;;;;;;5073248;28;20585;-85
2023/06/04 06:37:06;;;;;;;1.13;1.02;;;16.00;82.80;;;;;;5092319;28;20206;-86
2023/06/04 06:39:32;;;;;;;1.70;1.10;;;16.00;82.90;;;;;;5083395;28;20214;-88
2023/06/04 06:41:58;;;;;;;1.50;1.08;;;16.10;81.90;;;;;;5090571;28;20730;-87
2023/06/04 06:44:23;;;;;;;1.55;1.23;;;16.30;81.90;;;;;;5080927;28;20741;-89
2023/06/04 06:46:49;;;;;;;7.07;2.25;;;16.30;80.10;;;;;;5074192;28;20195;-87
2023/06/04 06:49:15;;;;;;;3.13;1.25;;;16.40;83.20;;;;;;5087131;28;20198;-88
2023/06/04 06:51:41;;;;;;;1.85;1.10;;;16.50;80.80;;;;;;5073482;28;20243;-86
2023/06/04 06:54:10;;;;;;;2.00;1.10;;;16.70;81.60;;;;;;5069626;28;20644;-87
2023/06/04 06:56:36;;;;;;;0.90;0.90;;;16.70;79.70;;;;;;5091787;28;20179;-87
2023/06/04 06:59:02;;;;;;;1.48;1.13;;;16.80;80.70;;;;;;5077943;28;20211;-86
2023/06/04 07:01:27;;;;;;;1.52;1.13;;;16.80;79.40;;;;;;5100239;28;20202;-85
2023/06/04 07:03:53;;;;;;;1.70;0.93;;;16.90;79.60;;;;;;5095985;28;20195;-89
2023/06/04 07:06:19;;;;;;;2.15;1.38;;;17.00;79.70;;;;;;5098802;28;20693;-87
2023/06/04 07:08:44;;;;;;;2.53;1.20;;;17.10;78.00;;;;;;5102733;28;20198;-86
2023/06/04 07:11:13;;;;;;;0.93;0.90;;;17.10;78.10;;;;;;5099994;28;20699;-86
2023/06/04 07:13:39;;;;;;;1.60;0.95;;;17.20;79.00;;;;;;5101007;28;20186;-88
2023/06/04 07:16:05;;;;;;;1.05;0.70;;;17.30;74.70;;;;;;5084490;28;20186;-88
2023/06/04 07:18:32;;;;;;;1.58;1.13;;;17.00;77.20;;;;;;5080470;28;20234;-89
2023/06/04 07:20:58;;;;;;;3.10;0.95;;;17.10;76.60;;;;;;5068553;28;20545;-89
2023/06/04 07:23:24;;;;;;;3.15;1.42;;;17.20;77.30;;;;;;5103709;28;20178;-88
2023/06/04 07:25:49;;;;;;;2.67;1.40;;;17.20;75.80;;;;;;5098569;28;20188;-93
2023/06/04 07:28:15;;;;;;;1.30;0.80;;;17.40;76.90;;;;;;5105670;28;20174;-88
2023/06/04 07:30:41;;;;;;;3.22;1.08;;;17.50;74.70;;;;;;5083728;28;20672;-88
2023/06/04 07:33:07;;;;;;;1.80;1.00;;;17.40;73.00;;;;;;5103360;28;20204;-90
2023/06/04 07:35:32;;;;;;;1.63;0.90;;;17.70;72.70;;;;;;5103352;28;20200;-88
2023/06/04 07:37:58;;;;;;;1.25;0.80;;;17.90;71.80;;;;;;5100689;28;20183;-87
2023/06/04 07:40:24;;;;;;;1.50;1.10;;;17.90;72.70;;;;;;5103182;28;20210;-87
2023/06/04 07:42:50;;;;;;;7.45;0.90;;;18.10;72.20;;;;;;5101640;28;20183;-88
2023/06/04 07:45:15;;;;;;;1.30;0.90;;;18.20;68.40;;;;;;5094834;28;20269;-86
2023/06/04 07:47:42;;;;;;;1.08;0.80;;;18.20;65.40;;;;;;5078193;28;20185;-87
2023/06/04 07:50:08;;;;;;;0.88;0.70;;;18.10;65.90;;;;;;5110888;28;20230;-87
2023/06/04 07:52:34;;;;;;;2.38;0.95;;;18.20;67.80;;;;;;5107625;28;20178;-86
2023/06/04 07:55:01;;;;;;;1.08;0.82;;;18.30;64.50;;;;;;5109794;28;20181;-87
2023/06/04 07:57:26;;;;;;;0.93;0.73;;;18.50;64.90;;;;;;5100571;28;20183;-87
2023/06/04 07:59:52;;;;;;;1.60;1.17;;;18.50;59.00;;;;;;5101280;28;20695;-86
2023/06/04 08:02:18;;;;;;;0.90;0.90;;;18.70;59.00;;;;;;5099843;28;20662;-85
2023/06/04 08:04:46;;;;;;;6.00;1.45;;;18.80;57.00;;;;;;5102997;28;20177;-87
2023/06/04 08:07:11;;;;;;;1.70;0.93;;;18.80;58.10;;;;;;5087321;28;20206;-86
2023/06/04 08:09:37;;;;;;;1.73;1.05;;;19.00;56.80;;;;;;5079508;28;20989;-88
2023/06/04 08:12:03;;;;;;;1.23;0.63;;;19.10;55.80;;;;;;5094422;28;20183;-84
2023/06/04 08:14:29;;;;;;;1.77;1.10;;;19.20;56.60;;;;;;5071914;28;20263;-85
2023/06/04 08:16:54;;;;;;;1.20;0.68;;;19.30;56.60;;;;;;5092651;28;20185;-89
2023/06/04 08:19:20;;;;;;;2.00;0.70;;;19.40;55.90;;;;;;5082071;28;20238;-88
2023/06/04 08:21:47;;;;;;;1.85;0.80;;;19.30;54.30;;;;;;5102212;28;20826;-88
2023/06/04 08:24:13;;;;;;;2.28;1.05;;;19.40;54.00;;;;;;5098765;28;20198;-84
2023/06/04 08:26:39;;;;;;;1.17;0.73;;;19.40;60.00;;;;;;5099999;28;20190;-85
2023/06/04 08:29:05;;;;;;;1.77;0.80;;;19.60;59.50;;;;;;5100948;28;20177;-86
2023/06/04 08:31:31;;;;;;;4.63;1.40;;;19.50;65.30;;;;;;5081792;28;20588;-84
2023/06/04 08:33:57;;;;;;;1.30;1.13;;;19.50;58.70;;;;;;5102055;28;20177;-85
2023/06/04 08:36:22;;;;;;;1.85;0.68;;;19.50;57.80;;;;;;5103043;28;20189;-86
2023/06/04 08:38:52;;;;;;;2.90;0.98;;;19.60;53.10;;;;;;5084920;28;20662;-87
2023/06/04 08:41:32;;;;;;;2.03;0.80;;;19.40;55.00;;;;;;5101747;28;20167;-87
2023/06/04 08:44:01;;;;;;;1.98;0.77;;;19.50;56.40;;;;;;5099234;28;20209;-86
2023/06/04 08:46:31;;;;;;;0.60;0.47;;;19.60;55.30;;;;;;5099593;28;20173;-89
2023/06/04 08:49:02;;;;;;;1.13;0.70;;;19.60;54.10;;;;;;5099733;28;20220;-88
2023/06/04 08:51:32;;;;;;;3.13;0.70;;;19.60;55.60;;;;;;5100539;28;20174;-87
2023/06/04 08:53:58;;;;;;;1.95;0.95;;;19.60;55.40;;;;;;5100121;28;20185;-90
2023/06/04 08:56:25;;;;;;;1.17;0.75;;;19.70;54.10;;;;;;5100487;28;20171;-92
2023/06/04 08:58:52;;;;;;;0.82;0.70;;;19.80;54.80;;;;;;5072672;28;20228;-91
2023/06/04 09:01:18;;;;;;;1.50;0.80;;;20.10;56.90;;;;;;5102290;28;20186;-91
2023/06/04 09:03:45;;;;;;;0.70;0.70;;;20.30;56.50;;;;;;5101044;28;20187;-87
2023/06/04 09:06:11;;;;;;;5.72;0.70;;;20.30;54.00;;;;;;5094831;28;20187;-88
2023/06/04 09:08:41;;;;;;;1.27;0.88;;;20.20;58.20;;;;;;5091575;28;20251;-89
2023/06/04 09:11:11;;;;;;;0.95;0.70;;;20.00;54.70;;;;;;5092202;28;20206;-88
2023/06/04 09:13:38;;;;;;;1.25;0.70;;;20.30;54.40;;;;;;5096712;28;20167;-87
2023/06/04 09:16:07;;;;;;;5.20;1.08;;;20.10;51.50;;;;;;5090285;28;20171;-88
2023/06/04 09:18:33;;;;;;;2.45;0.70;;;19.90;55.50;;;;;;5090193;28;20702;-90
2023/06/04 09:21:07;;;;;;;1.23;0.70;;;20.00;52.80;;;;;;5095410;28;20170;-89
2023/06/04 09:23:47;;;;;;;1.33;0.60;;;19.80;54.30;;;;;;5087224;28;20183;-88
2023/06/04 09:26:13;;;;;;;1.52;0.88;;;20.10;54.80;;;;;;5098452;28;20219;-89
2023/06/04 09:28:43;;;;;;;3.30;0.82;;;20.30;55.20;;;;;;5100964;28;20178;-87
2023/06/04 09:31:13;;;;;;;1.25;0.80;;;20.60;53.90;;;;;;5086428;28;20179;-88
2023/06/04 09:33:46;;;;;;;4.13;0.90;;;20.90;53.40;;;;;;5099756;28;20171;-88
2023/06/04 09:36:12;;;;;;;3.03;0.80;;;21.00;54.30;;;;;;5100831;28;20252;-88
2023/06/04 09:38:38;;;;;;;3.10;0.85;;;21.10;50.90;;;;;;5109955;28;20217;-88
2023/06/04 09:41:05;;;;;;;0.60;0.50;;;21.10;51.20;;;;;;5110393;28;20181;-88
2023/06/04 09:43:32;;;;;;;7.80;1.00;;;21.20;53.00;;;;;;5110430;28;20248;-87
2023/06/04 09:46:12;;;;;;;1.95;0.70;;;21.20;54.30;;;;;;5103846;28;20179;-87
2023/06/04 09:48:39;;;;;;;1.02;0.70;;;21.40;51.50;;;;;;5104652;28;20235;-88
2023/06/04 09:51:19;;;;;;;1.65;1.00;;;21.30;49.70;;;;;;5107064;28;20178;-87
2023/06/04 09:53:55;;;;;;;1.58;0.93;;;21.40;51.80;;;;;;5094657;28;20182;-87
2023/06/04 09:56:21;;;;;;;1.45;0.70;;;21.50;49.30;;;;;;5097361;28;20235;-88
2023/06/04 09:58:53;;;;;;;0.93;0.60;;;21.50;49.80;;;;;;5093191;28;20661;-87
2023/06/04 10:01:20;;;;;;;0.73;0.70;;;21.40;48.40;;;;;;5094564;28;20185;-86
2023/06/04 10:03:50;;;;;;;1.10;0.70;;;21.50;52.00;;;;;;5101660;28;20184;-86
2023/06/04 10:06:17;;;;;;;1.45;1.02;;;21.70;53.40;;;;;;5103289;28;20212;-86
2023/06/04 10:08:45;;;;;;;1.88;1.25;;;21.90;50.40;;;;;;5096119;28;20257;-86
2023/06/04 10:11:13;;;;;;;3.78;0.65;;;21.90;50.40;;;;;;5089713;28;20186;-88
2023/06/04 10:13:47;;;;;;;0.88;0.77;;;22.20;49.70;;;;;;5092348;28;20213;-88
2023/06/04 10:16:13;;;;;;;1.75;0.60;;;22.20;48.60;;;;;;5093692;28;20257;-87
2023/06/04 10:18:39;;;;;;;1.75;1.27;;;22.40;48.90;;;;;;5092338;28;20234;-87
2023/06/04 10:21:08;;;;;;;0.95;0.82;;;22.40;47.90;;;;;;5093251;28;20173;-87
2023/06/04 10:23:34;;;;;;;1.80;1.25;;;22.30;48.90;;;;;;5092628;28;20174;-86
2023/06/04 10:26:01;;;;;;;1.35;1.17;;;22.30;46.80;;;;;;5092910;28;20183;-87
2023/06/04 10:28:26;;;;;;;2.58;1.30;;;22.30;49.80;;;;;;5083224;28;20193;-87
2023/06/04 10:30:52;;;;;;;1.17;0.90;;;22.40;48.40;;;;;;5073549;28;20187;-87
2023/06/04 10:33:24;;;;;;;4.45;1.65;;;22.20;47.00;;;;;;5075225;28;20195;-87
2023/06/04 10:35:53;;;;;;;2.67;1.55;;;21.40;48.60;;;;;;5094216;28;20269;-87
2023/06/04 10:38:22;;;;;;;2.25;0.70;;;21.60;49.70;;;;;;5100188;28;20255;-86
2023/06/04 10:40:48;;;;;;;1.17;0.85;;;21.80;46.20;;;;;;5083186;28;20195;-87
2023/06/04 10:43:17;;;;;;;4.10;1.15;;;21.80;48.00;;;;;;5075282;28;20226;-87
2023/06/04 10:45:44;;;;;;;1.52;1.15;;;22.00;47.70;;;;;;5088850;28;20271;-88
2023/06/04 10:48:12;;;;;;;0.90;0.60;;;22.10;47.50;;;;;;5094108;28;20181;-88
2023/06/04 10:50:49;;;;;;;0.93;0.50;;;22.30;47.70;;;;;;5102138;28;20191;-88
2023/06/04 10:53:16;;;;;;;1.58;0.70;;;22.30;45.00;;;;;;5106186;28;20264;-87
2023/06/04 10:55:46;;;;;;;2.08;1.20;;;22.00;44.10;;;;;;5099640;28;20182;-88
2023/06/04 10:58:12;;;;;;;1.52;0.75;;;21.90;50.50;;;;;;5085868;28;20257;-87
2023/06/04 11:00:42;;;;;;;1.45;0.80;;;22.30;47.60;;;;;;5116035;28;20222;-84
2023/06/04 11:03:10;;;;;;;1.27;0.85;;;22.50;47.20;;;;;;5104899;28;20176;-86
2023/06/04 11:05:43;;;;;;;0.98;0.60;;;22.60;46.20;;;;;;5085514;28;20190;-85
2023/06/04 11:08:11;;;;;;;1.48;0.68;;;22.40;47.90;;;;;;5083944;28;20187;-87
2023/06/04 11:10:46;;;;;;;1.27;0.75;;;22.20;43.20;;;;;;5078226;28;20179;-87
2023/06/04 11:13:12;;;;;;;1.20;0.80;;;22.20;49.20;;;;;;5066588;28;20273;-87
2023/06/04 11:15:42;;;;;;;1.13;0.80;;;22.30;47.80;;;;;;5092467;28;20167;-87
2023/06/04 11:18:13;;;;;;;1.55;0.90;;;22.50;47.20;;;;;;5096286;28;20218;-87
2023/06/04 11:20:38;;;;;;;0.95;0.50;;;22.50;46.60;;;;;;5094656;28;20206;-86
2023/06/04 11:23:05;;;;;;;0.82;0.63;;;22.50;44.30;;;;;;5058751;28;20183;-86
2023/06/04 11:25:33;;;;;;;1.65;0.70;;;22.30;45.70;;;;;;5075457;28;20236;-86
2023/06/04 11:28:01;;;;;;;2.10;0.65;;;22.40;44.30;;;;;;5092315;28;20174;-86
2023/06/04 11:30:27;;;;;;;1.20;0.60;;;22.20;45.70;;;;;;5094308;28;20175;-86
2023/06/04 11:33:06;;;;;;;3.88;0.77;;;22.30;46.50;;;;;;5094474;28;20269;-86
2023/06/04 11:35:40;;;;;;;0.88;0.68;;;22.30;48.10;;;;;;5094361;28;20193;-87
2023/06/04 11:38:06;;;;;;;2.25;0.70;;;22.50;48.20;;;;;;5094975;28;20174;-87
2023/06/04 11:40:31;;;;;;;1.98;0.70;;;22.70;47.70;;;;;;5093445;28;20214;-87
2023/06/04 11:42:57;;;;;;;0.52;0.52;;;22.80;48.70;;;;;;5093806;28;20190;-86
2023/06/04 11:45:23;;;;;;;1.30;0.70;;;23.00;47.10;;;;;;5076595;28;20198;-87
2023/06/04 11:47:51;;;;;;;1.15;0.70;;;23.00;47.00;;;;;;5094592;28;20182;-86
2023/06/04 11:50:17;;;;;;;2.35;0.73;;;22.90;44.70;;;;;;5094779;28;20171;-87
2023/06/04 11:52:43;;;;;;;0.68;0.52;;;22.90;47.20;;;;;;5094993;28;20174;-87
2023/06/04 11:55:10;;;;;;;0.52;0.52;;;22.90;43.70;;;;;;5094898;28;20171;-86
2023/06/04 11:57:40;;;;;;;1.27;0.63;;;22.80;44.30;;;;;;5093003;28;20182;-86
2023/06/04 12:00:09;;;;;;;2.30;0.73;;;22.70;44.10;;;;;;5094169;28;20301;-87
2023/06/04 12:02:47;;;;;;;2.75;0.90;;;22.40;42.50;;;;;;5094638;28;20634;-87
2023/06/04 12:05:19;;;;;;;1.65;0.70;;;22.20;43.00;;;;;;5094076;28;20182;-87
2023/06/04 12:07:47;;;;;;;0.82;0.70;;;22.10;45.70;;;;;;5076237;28;20214;-87
2023/06/04 12:10:13;;;;;;;1.13;0.82;;;22.30;45.60;;;;;;5094196;28;20178;-86
2023/06/04 12:12:40;;;;;;;1.15;0.50;;;22.50;45.00;;;;;;5092811;28;20692;-87
2023/06/04 12:15:07;;;;;;;0.93;0.90;;;22.80;44.90;;;;;;5093548;28;20171;-87
2023/06/04 12:17:33;;;;;;;1.40;0.77;;;23.00;45.20;;;;;;5092101;28;20578;-88
2023/06/04 12:19:59;;;;;;;1.08;0.70;;;23.00;43.70;;;;;;5093803;28;20260;-87
2023/06/04 12:22:29;;;;;;;1.52;0.70;;;23.00;44.40;;;;;;5094036;28;20662;-87
2023/06/04 12:24:57;;;;;;;0.50;0.50;;;23.00;44.60;;;;;;5092650;28;20170;-87
2023/06/04 12:27:27;;;;;;;2.20;0.60;;;23.00;45.00;;;;;;5092753;28;20581;-87
2023/06/04 12:30:01;;;;;;;1.15;0.68;;;22.90;43.90;;;;;;5093999;28;20181;-87
2023/06/04 12:32:28;;;;;;;5.18;0.93;;;22.70;45.50;;;;;;5094179;28;20626;-87
2023/06/04 12:34:53;;;;;;;4.18;0.77;;;23.00;45.30;;;;;;5094348;28;20174;-87
2023/06/04 12:37:25;;;;;;;0.77;0.55;;;23.20;45.40;;;;;;5100011;28;20243;-87
2023/06/04 12:39:51;;;;;;;3.30;0.73;;;23.20;43.10;;;;;;5079947;28;20214;-87
2023/06/04 12:42:18;;;;;;;0.82;0.65;;;22.80;44.10;;;;;;5076190;28;20197;-87
2023/06/04 12:44:44;;;;;;;0.50;0.50;;;22.80;44.40;;;;;;5093527;28;20583;-87
2023/06/04 12:47:11;;;;;;;1.20;0.80;;;22.90;44.50;;;;;;5093709;28;20249;-87
2023/06/04 12:49:37;;;;;;;0.60;0.60;;;23.10;44.40;;;;;;5093546;28;20643;-87